createdAt,value
2023-01-10T00:14:53.335Z,17.80
2023-01-10T00:32:23.272Z,17.70
2023-01-10T00:34:52.070Z,17.70
2023-01-10T00:47:32.925Z,17.50
2023-01-10T00:50:00.962Z,17.70
2023-01-10T00:59:54.200Z,17.30
2023-01-10T01:04:52.203Z,17.40
2023-01-10T01:20:01.255Z,17.30
2023-01-10T01:37:20.931Z,17.20
2023-01-10T01:42:27.590Z,17.30
2023-01-10T01:45:37.165Z,17.40
2023-01-10T01:48:14.576Z,17.50
2023-01-10T01:50:46.441Z,16.70
2023-01-10T01:53:21.217Z,17.50
2023-01-10T01:55:50.260Z,17.50
2023-01-10T01:58:21.523Z,17.30
2023-01-10T02:08:17.363Z,17.00
2023-01-10T02:10:50.180Z,17.40
2023-01-10T02:13:21.583Z,17.00
2023-01-10T02:18:18.870Z,17.20
2023-01-10T02:21:02.586Z,17.20
2023-01-10T02:24:03.295Z,17.80
2023-01-10T02:27:01.353Z,17.60
2023-01-10T02:30:10.501Z,16.60
2023-01-10T02:32:56.710Z,17.70
2023-01-10T02:35:51.980Z,17.70
2023-01-10T02:38:31.064Z,17.70
2023-01-10T02:41:06.225Z,17.70
2023-01-10T02:43:38.823Z,17.50
2023-01-10T02:46:11.305Z,17.60
2023-01-10T02:48:40.859Z,17.60
2023-01-10T02:51:15.693Z,16.80
2023-01-10T02:53:48.119Z,17.30
2023-01-10T02:56:48.170Z,16.90
2023-01-10T02:59:28.957Z,16.50
2023-01-10T03:02:04.849Z,17.70
2023-01-10T03:04:45.705Z,17.40
2023-01-10T03:07:19.531Z,17.80
2023-01-10T03:09:56.475Z,17.10
2023-01-10T03:12:29.940Z,16.50
2023-01-10T03:15:00.605Z,16.90
2023-01-10T03:17:31.429Z,16.20
2023-01-10T03:20:05.753Z,17.10
2023-01-10T03:22:37.213Z,16.40
2023-01-10T03:30:14.787Z,17.30
2023-01-10T03:35:15.283Z,17.10
2023-01-10T03:37:51.272Z,17.00
2023-01-10T03:40:24.394Z,17.40
2023-01-10T03:43:16.497Z,17.70
2023-01-10T03:45:50.714Z,17.10
2023-01-10T03:48:22.132Z,16.60
2023-01-10T03:50:53.329Z,16.90
2023-01-10T03:55:50.481Z,17.00
2023-01-10T04:05:47.248Z,16.90
2023-01-10T04:08:16.736Z,17.10
2023-01-10T04:25:37.387Z,17.00
2023-01-10T04:42:57.670Z,16.90
2023-01-10T04:45:25.919Z,16.60
2023-01-10T05:00:22.344Z,17.00
2023-01-10T05:17:43.710Z,17.50
2023-01-10T05:20:13.531Z,17.20
2023-01-10T05:22:41.661Z,17.80
2023-01-10T05:25:10.806Z,18.10
2023-01-10T05:27:42.812Z,17.60
2023-01-10T05:30:13.303Z,17.80
2023-01-10T05:35:11.724Z,17.60
2023-01-10T05:37:40.248Z,18.20
2023-01-10T05:40:10.048Z,18.20
2023-01-10T05:45:07.335Z,17.90
2023-01-10T05:52:33.638Z,18.20
2023-01-10T05:55:01.757Z,18.30
2023-01-10T06:09:54.384Z,18.20
2023-01-10T06:27:15.584Z,17.60
2023-01-10T06:29:43.689Z,18.30
2023-01-10T06:39:37.836Z,18.20
2023-01-10T06:44:36.175Z,17.90
2023-01-10T07:01:56.897Z,18.00
2023-01-10T07:06:54.938Z,18.00
2023-01-10T07:19:20.004Z,18.20
2023-01-10T07:36:41.288Z,18.40
2023-01-10T07:44:08.147Z,18.00
2023-01-10T07:46:36.113Z,18.10
2023-01-10T08:11:25.318Z,18.50
2023-01-10T08:28:45.956Z,18.20
2023-01-10T08:36:17.635Z,18.10
2023-01-10T08:46:12.810Z,18.50
2023-01-10T08:51:10.332Z,18.90
2023-01-10T08:53:40.343Z,18.40
2023-01-10T08:56:08.665Z,18.70
2023-01-10T09:01:06.300Z,18.80
2023-01-10T09:03:36.171Z,18.60
2023-01-10T09:06:04.684Z,18.70
2023-01-10T09:13:33.675Z,19.00
2023-01-10T09:21:00.839Z,18.80
2023-01-10T09:23:28.956Z,19.00
2023-01-10T09:28:26.167Z,18.70
2023-01-10T09:38:22.375Z,18.80
2023-01-10T09:41:27.518Z,18.90
2023-01-10T09:44:03.636Z,19.00
2023-01-10T09:46:42.911Z,19.00
2023-01-10T09:49:20.771Z,18.80
2023-01-10T09:51:51.716Z,18.80
2023-01-10T09:54:26.600Z,19.60
2023-01-10T09:56:56.354Z,19.10
2023-01-10T09:59:27.107Z,19.10
2023-01-10T10:02:02.593Z,18.70
2023-01-10T10:04:36.049Z,18.80
2023-01-10T10:07:05.287Z,19.00
2023-01-10T10:09:36.316Z,19.10
2023-01-10T10:12:24.889Z,18.90
2023-01-10T10:15:16.359Z,19.40
2023-01-10T10:17:50.626Z,19.20
2023-01-10T10:20:32.988Z,19.50
2023-01-10T10:23:23.653Z,19.50
2023-01-10T10:26:05.722Z,19.40
2023-01-10T10:29:12.411Z,19.00
2023-01-10T10:31:55.778Z,19.50
2023-01-10T10:34:29.079Z,19.40
2023-01-10T10:37:02.387Z,19.50
2023-01-10T10:39:37.085Z,19.30
2023-01-10T10:42:12.839Z,19.60
2023-01-10T10:44:45.025Z,19.70
2023-01-10T10:47:17.012Z,19.80
2023-01-10T10:49:50.907Z,20.00
2023-01-10T10:52:25.791Z,19.90
2023-01-10T10:54:54.725Z,20.10
2023-01-10T10:57:28.638Z,19.80
2023-01-10T10:59:58.657Z,19.60
2023-01-10T11:02:28.426Z,19.80
2023-01-10T11:05:05.981Z,19.80
2023-01-10T11:07:37.630Z,19.90
2023-01-10T11:10:29.758Z,20.10
2023-01-10T11:13:01.645Z,20.70
2023-01-10T11:15:41.944Z,20.20
2023-01-10T11:18:15.125Z,20.60
2023-01-10T11:20:58.752Z,20.10
2023-01-10T11:23:38.694Z,20.60
2023-01-10T11:26:08.013Z,20.40
2023-01-10T11:28:38.652Z,21.10
2023-01-10T11:31:07.422Z,21.30
2023-01-10T11:33:36.749Z,21.40
2023-01-10T11:36:07.210Z,21.50
2023-01-10T11:38:35.868Z,22.20
2023-01-10T11:41:05.480Z,22.30
2023-01-10T11:43:36.177Z,22.60
2023-01-10T11:46:13.462Z,22.60
2023-01-10T11:49:05.166Z,23.10
2023-01-10T11:54:05.448Z,21.90
2023-01-10T11:56:34.827Z,21.70
2023-01-10T11:59:12.575Z,22.30
2023-01-10T12:01:44.867Z,21.70
2023-01-10T12:04:16.699Z,22.00
2023-01-10T12:06:47.485Z,22.10
2023-01-10T12:09:35.575Z,22.10
2023-01-10T12:12:05.351Z,21.40
2023-01-10T12:14:33.652Z,21.90
2023-01-10T12:17:05.696Z,22.20
2023-01-10T12:19:35.363Z,21.80
2023-01-10T12:22:09.195Z,20.90
2023-01-10T12:24:42.062Z,21.70
2023-01-10T12:27:14.873Z,21.50
2023-01-10T12:32:20.969Z,22.70
2023-01-10T12:37:23.641Z,22.30
2023-01-10T12:42:49.123Z,22.50
2023-01-10T12:47:57.994Z,21.40
2023-01-10T12:50:32.498Z,21.90
2023-01-10T12:53:05.373Z,22.40
2023-01-10T12:55:40.735Z,22.90
2023-01-10T12:58:15.797Z,21.80
2023-01-10T13:00:49.039Z,21.70
2023-01-10T13:03:21.733Z,21.20
2023-01-10T13:05:52.139Z,21.70
2023-01-10T13:10:53.480Z,21.80
2023-01-10T13:13:27.732Z,21.90
2023-01-10T13:16:03.169Z,21.60
2023-01-10T13:18:34.863Z,22.20
2023-01-10T13:21:09.055Z,21.60
2023-01-10T13:23:40.977Z,21.90
2023-01-10T13:26:10.708Z,21.50
2023-01-10T13:28:41.506Z,21.90
2023-01-10T13:31:24.625Z,21.70
2023-01-10T13:33:56.460Z,21.90
2023-01-10T13:36:28.076Z,22.20
2023-01-10T13:38:58.433Z,21.20
2023-01-10T13:44:14.384Z,21.00
2023-01-10T13:46:50.110Z,21.80
2023-01-10T13:49:45.131Z,22.00
2023-01-10T13:52:35.117Z,21.80
2023-01-10T14:00:42.840Z,21.30
2023-01-10T14:03:42.461Z,21.30
2023-01-10T14:06:29.351Z,21.20
2023-01-10T14:09:00.066Z,21.20
2023-01-10T14:11:31.189Z,20.60
2023-01-10T14:26:33.223Z,21.80
2023-01-10T14:29:03.322Z,21.00
2023-01-10T14:34:02.984Z,20.90
2023-01-10T14:36:35.022Z,20.70
2023-01-10T14:39:07.035Z,21.20
2023-01-10T14:41:39.776Z,20.40
2023-01-10T14:44:13.385Z,20.80
2023-01-10T14:46:47.424Z,20.50
2023-01-10T14:49:25.027Z,21.50
2023-01-10T14:52:00.885Z,19.90
2023-01-10T14:56:58.616Z,19.90
2023-01-10T14:59:28.730Z,20.80
2023-01-10T15:01:58.995Z,20.50
2023-01-10T15:04:30.814Z,20.40
2023-01-10T15:07:03.091Z,20.50
2023-01-10T15:09:32.873Z,20.40
2023-01-10T15:12:03.368Z,20.20
2023-01-10T15:17:02.425Z,20.60
2023-01-10T15:19:33.796Z,20.20
2023-01-10T15:22:04.782Z,20.70
2023-01-10T15:27:05.371Z,20.10
2023-01-10T15:29:35.009Z,19.90
2023-01-10T15:32:10.825Z,19.20
2023-01-10T15:37:19.807Z,19.30
2023-01-10T15:39:48.684Z,19.50
2023-01-10T15:44:48.808Z,19.40
2023-01-10T15:47:37.143Z,19.50
2023-01-10T15:50:20.033Z,19.30
2023-01-10T15:52:54.870Z,20.00
2023-01-10T15:55:41.620Z,19.40
2023-01-10T15:58:23.741Z,19.70
2023-01-10T16:00:54.145Z,20.00
2023-01-10T16:03:30.692Z,20.10
2023-01-10T16:06:01.424Z,19.80
2023-01-10T16:08:35.874Z,19.80
2023-01-10T16:11:08.045Z,19.70
2023-01-10T16:16:15.731Z,20.00
2023-01-10T16:21:14.428Z,19.70
2023-01-10T16:23:47.749Z,19.60
2023-01-10T16:31:15.436Z,20.10
2023-01-10T16:36:19.085Z,20.10
2023-01-10T16:38:48.866Z,19.90
2023-01-10T16:51:30.362Z,19.60
2023-01-10T16:53:59.976Z,19.20
2023-01-10T16:56:30.078Z,19.50
2023-01-10T17:01:31.770Z,19.40
2023-01-10T17:04:00.518Z,19.70
2023-01-10T17:11:30.827Z,19.50
2023-01-10T17:14:00.137Z,19.30
2023-01-10T17:16:28.516Z,19.50
2023-01-10T17:18:56.651Z,19.70
2023-01-10T17:21:25.110Z,19.70
2023-01-10T17:23:53.332Z,19.60
2023-01-10T17:26:22.406Z,19.50
2023-01-10T17:28:51.919Z,19.40
2023-01-10T17:31:20.484Z,19.30
2023-01-10T17:36:19.501Z,19.80
2023-01-10T17:38:47.636Z,19.50
2023-01-10T17:43:44.276Z,19.50
2023-01-10T17:46:14.031Z,19.90
2023-01-10T17:48:42.310Z,19.70
2023-01-10T17:53:41.627Z,19.50
2023-01-10T18:03:36.699Z,19.80
2023-01-10T18:16:02.642Z,19.10
2023-01-10T18:21:03.853Z,19.50
2023-01-10T18:26:03.720Z,18.90
2023-01-10T18:28:40.981Z,19.10
2023-01-10T18:31:12.793Z,19.90
2023-01-10T18:36:15.709Z,19.20
2023-01-10T18:43:41.994Z,19.50
2023-01-10T18:46:14.257Z,19.30
2023-01-10T18:51:14.231Z,19.40
2023-01-10T18:56:12.575Z,19.50
2023-01-10T18:58:42.725Z,19.40
2023-01-10T19:01:13.340Z,19.40
2023-01-10T19:06:15.985Z,19.10
2023-01-10T19:11:16.082Z,19.10
2023-01-10T19:18:43.508Z,19.20
2023-01-10T19:21:16.059Z,19.40
2023-01-10T19:23:45.685Z,19.20
2023-01-10T19:26:16.102Z,19.70
2023-01-10T19:28:45.182Z,19.90
2023-01-10T19:31:19.253Z,20.00
2023-01-10T19:33:50.766Z,19.70
2023-01-10T19:36:23.178Z,19.50
2023-01-10T19:38:57.922Z,19.20
2023-01-10T19:41:26.979Z,18.80
2023-01-10T19:43:59.529Z,18.60
2023-01-10T19:46:29.208Z,18.80
2023-01-10T19:48:58.627Z,18.80
2023-01-10T19:51:30.240Z,18.80
2023-01-10T19:53:59.060Z,19.20
2023-01-10T19:58:56.398Z,19.00
2023-01-10T20:01:27.126Z,19.80
2023-01-10T20:03:57.863Z,19.30
2023-01-10T20:06:28.996Z,19.20
2023-01-10T20:11:27.653Z,19.10
2023-01-10T20:13:55.583Z,19.20
2023-01-10T20:16:24.932Z,19.30
2023-01-10T20:18:53.367Z,19.30
2023-01-10T20:23:51.767Z,19.50
2023-01-10T20:26:22.323Z,19.60
2023-01-10T20:28:51.741Z,19.70
2023-01-10T20:31:21.819Z,19.80
2023-01-10T20:36:20.673Z,20.30
2023-01-10T20:38:49.556Z,20.40
2023-01-10T20:41:21.072Z,20.50
2023-01-10T20:43:49.290Z,20.50
2023-01-10T20:46:19.709Z,20.40
2023-01-10T20:48:49.181Z,19.90
2023-01-10T20:51:20.591Z,20.20
2023-01-10T20:53:49.129Z,20.30
2023-01-10T20:56:20.600Z,20.20
2023-01-10T20:58:49.259Z,20.10
2023-01-10T21:01:28.898Z,20.10
2023-01-10T21:04:01.582Z,20.10
2023-01-10T21:06:29.904Z,20.10
2023-01-10T21:08:58.188Z,20.10
2023-01-10T21:11:28.003Z,20.10
2023-01-10T21:13:56.307Z,20.10
2023-01-10T21:16:25.573Z,20.10
2023-01-10T21:18:53.960Z,20.00
2023-01-10T21:21:23.596Z,20.10
2023-01-10T21:26:20.273Z,19.90
2023-01-10T21:28:49.769Z,20.50
2023-01-10T21:31:20.104Z,19.90
2023-01-10T21:41:37.198Z,19.60
2023-01-10T21:44:07.299Z,19.20
2023-01-10T22:01:27.854Z,19.00
2023-01-10T22:11:22.731Z,18.70
2023-01-10T22:16:20.633Z,18.80
2023-01-10T22:18:50.342Z,18.60
2023-01-10T22:21:19.802Z,18.80
2023-01-10T22:23:48.337Z,18.80
2023-01-10T22:26:17.646Z,18.80
2023-01-10T22:28:45.812Z,18.60
2023-01-10T22:31:13.995Z,18.60
2023-01-10T22:36:16.377Z,18.40
2023-01-10T22:38:45.267Z,18.40
2023-01-10T22:41:15.473Z,18.20
2023-01-10T22:46:15.593Z,18.40
2023-01-10T22:51:14.445Z,18.40
2023-01-10T22:56:12.359Z,18.30
2023-01-10T22:58:42.328Z,18.00
2023-01-10T23:01:10.231Z,18.50
2023-01-10T23:06:07.326Z,18.20
2023-01-10T23:08:37.041Z,18.20
2023-01-10T23:11:05.343Z,18.40
2023-01-10T23:13:34.086Z,18.90
2023-01-10T23:16:04.302Z,18.20
2023-01-10T23:18:32.938Z,18.40
2023-01-10T23:23:29.920Z,18.40
2023-01-10T23:26:03.815Z,18.60
2023-01-10T23:28:33.443Z,18.40
2023-01-10T23:31:01.608Z,18.70
2023-01-10T23:33:30.498Z,18.80
2023-01-10T23:43:25.997Z,18.70
2023-01-10T23:45:53.968Z,18.60
2023-01-10T23:48:22.246Z,18.30
2023-01-10T23:53:20.034Z,18.20
